Tippo, Mississippi
Current Conditions -  °F | °C
As of 2:35 AM on Monday 26 Jan 2015 (Local Time) from KGNF Reporting Station
Overcast Overcast  
Wind Chill: 37°   Ceiling: 2400
Heat Index: 43°   Visibility: 10mi
Dew Point: 36°   Wind: 10mph
Humidity: 76%   Direction: 320°NW
Pressure: 30"   Gusts: 16mph
Location:  33.91°N, 90.18°W
Report Text: KGNF 260835Z AUTO 32009G14KT 10SM OVC024 06/02 A3000 RMK AO2
Loading
Personal Weather Stations






























Interactive Weather Map New forecast layout! Learn more

10-Day Weather Forecast

Advertisements
Track Severe Weather on mobile